Time;durP1;ratioP1;P1;durP2;ratioP2;P2;SDS_P1;SDS_P2;PMS_P1;PMS_P2;Temp;Humidity;BMP_temperature;BMP_pressure;BME280_temperature;BME280_humidity;BME280_pressure;Samples;Min_cycle;Max_cycle;Signal;HPM_P1;HPM_P2
2021/01/07 00:01:11;;;;;;;15.65;8.95;;;;;;;-0.19;93.38;95907.45;1795303;80;21177;-87
2021/01/07 00:03:38;;;;;;;15.50;8.58;;;;;;;-0.15;93.66;95904.66;1795159;80;21261;-88
2021/01/07 00:06:14;;;;;;;16.02;9.58;;;;;;;-0.10;93.67;95911.31;1795270;80;21644;-87
2021/01/07 00:08:42;;;;;;;16.97;9.78;;;;;;;-0.17;93.53;95900.20;1795114;80;21112;-87
2021/01/07 00:11:11;;;;;;;11.03;6.10;;;;;;;-0.30;93.58;95908.24;1795127;80;21265;-87
2021/01/07 00:13:39;;;;;;;18.37;9.70;;;;;;;-0.35;93.69;95910.74;1795243;80;21276;-87
2021/01/07 00:16:07;;;;;;;53.10;21.23;;;;;;;-0.43;93.79;95890.23;1795165;80;21273;-88
2021/01/07 00:18:34;;;;;;;24.67;11.57;;;;;;;-0.36;93.69;95911.77;1795076;80;21265;-87
2021/01/07 00:21:02;;;;;;;18.80;9.38;;;;;;;-0.37;93.79;95917.48;1794697;80;21321;-87
2021/01/07 00:23:29;;;;;;;16.97;10.10;;;;;;;-0.37;93.79;95917.48;1795158;80;21135;-88
2021/01/07 00:25:56;;;;;;;9.35;6.28;;;;;;;-0.37;93.93;95920.09;1795142;80;21293;-88
2021/01/07 00:28:24;;;;;;;12.58;6.90;;;;;;;-0.44;93.89;95907.67;1795305;80;21265;-87
2021/01/07 00:30:52;;;;;;;10.80;6.85;;;;;;;-0.48;93.80;95914.35;1795889;80;21472;-87
2021/01/07 00:33:20;;;;;;;9.53;6.20;;;;;;;-0.49;94.00;95917.19;1795693;80;21134;-87
2021/01/07 00:35:47;;;;;;;12.50;7.33;;;;;;;-0.44;94.07;95915.98;1795814;80;21167;-87
2021/01/07 00:38:15;;;;;;;23.42;12.10;;;;;;;-0.39;94.21;95910.92;1795653;80;21198;-87
2021/01/07 00:40:43;;;;;;;22.67;10.78;;;;;;;-0.33;94.11;95911.30;1771681;80;21142;-87
2021/01/07 00:43:10;;;;;;;20.00;10.60;;;;;;;-0.31;94.11;95913.17;1795729;80;21151;-87
2021/01/07 00:45:38;;;;;;;12.78;7.10;;;;;;;-0.26;94.05;95917.20;1795861;80;21508;-87
2021/01/07 00:48:07;;;;;;;9.15;5.37;;;;;;;-0.21;94.15;95915.22;1795724;80;21151;-88
2021/01/07 00:50:34;;;;;;;10.23;6.17;;;;;;;-0.16;94.10;95924.44;1795859;80;21142;-88
2021/01/07 00:53:01;;;;;;;10.55;5.05;;;;;;;-0.17;94.01;95922.34;1795989;80;21143;-87
2021/01/07 00:55:28;;;;;;;12.30;5.80;;;;;;;-0.20;94.15;95921.50;1796179;80;21150;-87
2021/01/07 00:57:56;;;;;;;11.53;6.25;;;;;;;-0.16;94.17;95917.41;1795766;80;21147;-87
2021/01/07 01:00:23;;;;;;;12.03;6.95;;;;;;;-0.14;94.24;95919.30;1796141;80;21139;-88
2021/01/07 01:02:51;;;;;;;10.18;6.03;;;;;;;-0.14;94.16;95915.40;1795846;80;21136;-88
2021/01/07 01:05:19;;;;;;;7.62;4.78;;;;;;;-0.21;94.14;95906.89;1795838;80;21175;-87
2021/01/07 01:07:46;;;;;;;12.05;5.45;;;;;;;-0.11;94.30;95916.23;1795954;80;21140;-87
2021/01/07 01:10:13;;;;;;;8.25;4.83;;;;;;;-0.06;94.41;95915.03;1795858;80;21144;-87
2021/01/07 01:12:40;;;;;;;7.78;4.62;;;;;;;-0.01;94.35;95916.95;1795831;80;21131;-88
2021/01/07 01:15:11;;;;;;;7.97;4.83;;;;;;;0.02;94.31;95915.72;1795928;80;21535;-88
2021/01/07 01:17:39;;;;;;;6.95;4.00;;;;;;;0.07;94.32;95918.42;1795843;80;21479;-88
2021/01/07 01:20:13;;;;;;;6.28;3.70;;;;;;;0.10;94.29;95914.05;1795495;80;21171;-87
2021/01/07 01:22:43;;;;;;;8.00;4.53;;;;;;;0.15;94.29;95913.66;1795961;80;21115;-88
2021/01/07 01:25:12;;;;;;;8.13;4.53;;;;;;;0.23;94.29;95912.50;1795990;80;21147;-87
2021/01/07 01:27:44;;;;;;;7.78;4.25;;;;;;;0.22;94.16;95909.62;1795752;80;21523;-88
2021/01/07 01:30:14;;;;;;;7.55;4.15;;;;;;;0.22;94.13;95907.01;1796128;80;21158;-87
2021/01/07 01:32:43;;;;;;;9.93;5.00;;;;;;;0.26;94.17;95910.22;1795935;80;21116;-87
2021/01/07 01:35:13;;;;;;;8.75;4.25;;;;;;;0.32;94.12;95906.43;1796082;80;21495;-88
2021/01/07 01:37:44;;;;;;;8.38;5.00;;;;;;;0.38;94.07;95909.41;1796006;80;21143;-88
2021/01/07 01:40:13;;;;;;;10.70;4.97;;;;;;;0.41;93.86;95905.03;1795905;80;21490;-87
2021/01/07 01:42:41;;;;;;;9.18;5.08;;;;;;;0.40;93.79;95898.23;1795764;80;21134;-88
2021/01/07 01:45:09;;;;;;;7.30;4.42;;;;;;;0.44;93.73;95897.56;1795829;80;21131;-88
2021/01/07 01:47:36;;;;;;;8.30;4.45;;;;;;;0.51;93.68;95901.33;1795759;80;21473;-87
2021/01/07 01:50:04;;;;;;;8.60;4.40;;;;;;;0.56;93.74;95895.71;1795441;80;21120;-88
2021/01/07 01:52:32;;;;;;;7.08;4.22;;;;;;;0.61;93.52;95895.00;1795864;80;21147;-88
2021/01/07 01:55:00;;;;;;;6.97;4.40;;;;;;;0.67;93.46;95892.75;1795845;80;21155;-88
2021/01/07 01:57:28;;;;;;;9.25;5.05;;;;;;;0.72;93.44;95890.26;1795923;80;21139;-88
2021/01/07 01:59:55;;;;;;;7.08;4.05;;;;;;;0.75;93.34;95885.87;1795789;80;21127;-87
2021/01/07 02:02:23;;;;;;;7.70;4.53;;;;;;;0.79;93.25;95882.28;1795884;80;21171;-88
2021/01/07 02:04:50;;;;;;;9.00;4.80;;;;;;;0.81;93.13;95880.22;1795826;80;21130;-88
2021/01/07 02:07:24;;;;;;;7.12;4.20;;;;;;;0.79;93.00;95884.38;1795735;80;21124;-88
2021/01/07 02:09:52;;;;;;;7.53;4.33;;;;;;;0.78;92.85;95882.79;1795764;80;21167;-87
2021/01/07 02:12:21;;;;;;;7.37;4.30;;;;;;;0.75;92.70;95879.35;1795850;80;21503;-88
2021/01/07 02:14:48;;;;;;;7.33;4.12;;;;;;;0.73;92.60;95883.22;1795996;80;21100;-87
2021/01/07 02:17:16;;;;;;;7.60;4.28;;;;;;;0.70;92.50;95878.45;1795920;80;21155;-87
2021/01/07 02:19:44;;;;;;;8.83;5.40;;;;;;;0.69;92.48;95882.08;1795720;80;21519;-87
2021/01/07 02:22:13;;;;;;;9.28;5.65;;;;;;;0.66;92.34;95888.56;1795833;80;21131;-87
2021/01/07 02:24:41;;;;;;;10.10;7.03;;;;;;;0.59;92.22;95876.98;1795868;80;21519;-87
2021/01/07 02:27:13;;;;;;;10.18;6.22;;;;;;;0.48;92.17;95872.59;1795949;80;21476;-87
2021/01/07 02:29:40;;;;;;;11.08;6.92;;;;;;;0.42;92.25;95881.33;1795742;80;21135;-87
2021/01/07 02:32:07;;;;;;;8.55;5.53;;;;;;;0.35;92.34;95878.08;1795808;80;21103;-87
2021/01/07 02:34:36;;;;;;;12.20;6.60;;;;;;;0.28;92.46;95873.49;1795761;80;21155;-88
2021/01/07 02:37:05;;;;;;;11.15;6.70;;;;;;;0.22;92.44;95873.12;1795904;80;21493;-87
2021/01/07 02:39:33;;;;;;;12.53;6.70;;;;;;;0.20;92.60;95880.39;1795925;80;21507;-87
2021/01/07 02:42:00;;;;;;;7.92;5.45;;;;;;;0.18;92.76;95879.31;1795782;80;21147;-87
2021/01/07 02:44:27;;;;;;;10.70;5.67;;;;;;;0.15;92.92;95881.60;1795737;80;21111;-87
2021/01/07 02:46:54;;;;;;;11.05;6.00;;;;;;;0.11;93.01;95881.25;1795976;80;21147;-87
2021/01/07 02:49:22;;;;;;;11.48;6.67;;;;;;;0.11;93.15;95877.84;1795701;80;21526;-88
2021/01/07 02:51:49;;;;;;;11.50;6.53;;;;;;;0.09;93.07;95886.41;1795805;80;21112;-87
2021/01/07 02:54:16;;;;;;;11.30;7.00;;;;;;;0.09;93.08;95883.30;1795904;80;21170;-87
2021/01/07 02:56:44;;;;;;;11.93;6.92;;;;;;;0.12;93.08;95882.03;1795859;80;21135;-87
2021/01/07 02:59:11;;;;;;;12.10;7.33;;;;;;;0.12;93.11;95888.04;1791306;80;21180;-87
2021/01/07 03:01:38;;;;;;;10.65;6.42;;;;;;;0.11;93.11;95879.15;1769692;81;21131;-88
2021/01/07 03:04:05;;;;;;;10.60;6.62;;;;;;;0.08;93.22;95876.50;1769644;81;21463;-87
2021/01/07 03:06:32;;;;;;;13.90;7.33;;;;;;;0.10;93.18;95882.78;1769639;81;21147;-87
2021/01/07 03:08:58;;;;;;;12.20;7.85;;;;;;;0.11;93.17;95885.66;1769579;81;21536;-88
2021/01/07 03:11:25;;;;;;;11.70;7.15;;;;;;;0.12;93.14;95885.94;1769648;81;21503;-88
2021/01/07 03:13:53;;;;;;;14.10;7.90;;;;;;;0.10;93.18;95882.78;1774844;80;21628;-87
2021/01/07 03:16:20;;;;;;;11.57;6.80;;;;;;;0.09;93.19;95886.41;1744214;82;21169;-88
2021/01/07 03:18:47;;;;;;;11.12;6.85;;;;;;;0.12;93.22;95880.73;1774367;81;21184;-87
2021/01/07 03:21:13;;;;;;;9.73;5.58;;;;;;;0.19;93.21;95887.41;1795092;80;21142;-87
2021/01/07 03:23:40;;;;;;;9.48;5.87;;;;;;;0.24;93.16;95884.11;1795390;80;21147;-87
2021/01/07 03:26:07;;;;;;;9.60;5.35;;;;;;;0.32;93.11;95892.09;1795762;79;21147;-87
2021/01/07 03:28:34;;;;;;;10.30;6.12;;;;;;;0.37;93.08;95890.36;1794300;79;21119;-88
2021/01/07 03:31:02;;;;;;;11.95;6.87;;;;;;;0.43;93.04;95892.58;1792143;80;21488;-88
2021/01/07 03:33:28;;;;;;;13.15;8.25;;;;;;;0.46;92.90;95886.38;1792095;80;21269;-87
2021/01/07 03:35:56;;;;;;;13.20;7.60;;;;;;;0.48;92.79;95897.37;1792130;80;21281;-88
2021/01/07 03:38:23;;;;;;;10.55;6.15;;;;;;;0.51;92.82;95894.29;1791963;80;21142;-88
2021/01/07 03:40:50;;;;;;;9.95;5.50;;;;;;;0.53;92.71;95894.84;1792239;80;21269;-88
2021/01/07 03:43:17;;;;;;;9.68;5.67;;;;;;;0.54;92.69;95895.13;1792133;80;21159;-87
2021/01/07 03:45:44;;;;;;;11.93;6.15;;;;;;;0.58;92.70;95898.08;1792160;80;21305;-87
2021/01/07 03:48:11;;;;;;;7.15;5.15;;;;;;;0.59;92.72;95892.63;1792156;80;21138;-88
2021/01/07 03:50:38;;;;;;;9.50;5.92;;;;;;;0.64;92.70;95897.66;1791779;80;21285;-88
2021/01/07 03:53:06;;;;;;;10.80;6.37;;;;;;;0.68;92.70;95901.37;1792099;80;21277;-88
2021/01/07 03:55:33;;;;;;;10.25;5.85;;;;;;;0.69;92.61;95897.73;1792065;80;21143;-87
2021/01/07 03:58:00;;;;;;;10.68;6.15;;;;;;;0.66;92.53;95899.00;1792062;80;21139;-88
2021/01/07 04:00:27;;;;;;;15.45;7.75;;;;;;;0.65;92.42;95892.72;1792055;80;21499;-88
2021/01/07 04:02:54;;;;;;;15.60;7.50;;;;;;;0.58;92.32;95892.35;1792088;80;21281;-88
2021/01/07 04:05:22;;;;;;;14.65;8.88;;;;;;;0.55;92.33;95892.80;1792048;80;21266;-88
2021/01/07 04:07:49;;;;;;;13.85;7.62;;;;;;;0.52;92.26;95891.96;1792252;80;21125;-87
2021/01/07 04:10:16;;;;;;;15.38;8.58;;;;;;;0.48;92.24;95894.76;1792105;80;21548;-88
2021/01/07 04:12:43;;;;;;;12.15;6.70;;;;;;;0.45;92.26;95895.23;1792216;80;21527;-88
2021/01/07 04:15:10;;;;;;;10.88;6.65;;;;;;;0.47;92.34;95899.70;1792148;80;21467;-87
2021/01/07 04:17:37;;;;;;;10.30;6.72;;;;;;;0.49;92.38;95900.25;1792317;80;21270;-88
2021/01/07 04:20:06;;;;;;;12.55;6.92;;;;;;;0.53;92.41;95904.48;1791713;80;21301;-88
2021/01/07 04:22:40;;;;;;;11.83;7.05;;;;;;;0.57;92.45;95912.94;1792052;80;21127;-88
2021/01/07 04:25:08;;;;;;;11.12;7.80;;;;;;;0.61;92.49;95899.43;1792090;80;21139;-87
2021/01/07 04:27:35;;;;;;;15.88;9.30;;;;;;;0.61;92.44;95904.64;1792256;80;21657;-88
2021/01/07 04:30:04;;;;;;;19.15;11.95;;;;;;;0.63;92.42;95905.99;1792031;80;21613;-87
2021/01/07 04:32:31;;;;;;;19.05;11.63;;;;;;;0.64;92.38;95908.08;1792186;80;21281;-88
2021/01/07 04:34:58;;;;;;;23.92;14.65;;;;;;;0.64;92.37;95908.87;1792060;80;21139;-88
2021/01/07 04:37:25;;;;;;;22.48;13.53;;;;;;;0.67;92.35;95909.70;1792363;80;21292;-87
2021/01/07 04:39:52;;;;;;;15.32;9.73;;;;;;;0.67;92.32;95911.02;1792083;80;21265;-88
2021/01/07 04:42:20;;;;;;;19.62;11.63;;;;;;;0.68;92.24;95911.80;1792222;80;21140;-88
2021/01/07 04:44:48;;;;;;;19.65;11.90;;;;;;;0.66;92.22;95912.55;1792037;80;21108;-88
2021/01/07 04:47:15;;;;;;;20.95;13.15;;;;;;;0.66;92.20;95912.55;1792074;80;21159;-88
2021/01/07 04:49:43;;;;;;;23.30;13.03;;;;;;;0.68;92.26;95909.98;1763333;80;21139;-88
2021/01/07 04:52:12;;;;;;;24.12;13.22;;;;;;;0.70;92.21;95907.94;1792269;80;21154;-88
2021/01/07 04:54:39;;;;;;;22.22;13.55;;;;;;;0.71;92.21;95915.28;1792058;80;21135;-88
2021/01/07 04:57:06;;;;;;;22.55;13.25;;;;;;;0.67;92.13;95908.92;1792090;80;21261;-88
2021/01/07 04:59:33;;;;;;;25.20;14.60;;;;;;;0.63;92.12;95910.41;1763467;80;21190;-87
2021/01/07 05:02:00;;;;;;;24.60;15.23;;;;;;;0.57;92.07;95908.23;1792116;80;21107;-88
2021/01/07 05:04:27;;;;;;;22.35;14.25;;;;;;;0.56;92.14;95907.44;1792208;80;21155;-88
2021/01/07 05:06:54;;;;;;;24.87;14.75;;;;;;;0.58;92.19;95909.81;1792120;80;21143;-88
2021/01/07 05:09:22;;;;;;;23.07;14.30;;;;;;;0.53;92.05;95909.70;1792183;80;21297;-87
2021/01/07 05:11:49;;;;;;;24.98;14.15;;;;;;;0.43;92.00;95907.70;1792093;80;21103;-88
2021/01/07 05:14:16;;;;;;;23.83;15.45;;;;;;;0.39;92.03;95903.96;1792116;80;21145;-88
2021/01/07 05:16:43;;;;;;;24.20;15.15;;;;;;;0.40;92.15;95908.66;1792149;80;21139;-88
2021/01/07 05:19:10;;;;;;;26.85;15.48;;;;;;;0.39;92.13;95901.86;1788023;80;21104;-87
2021/01/07 05:21:37;;;;;;;20.75;13.85;;;;;;;0.37;92.13;95906.52;1757689;82;21148;-88
2021/01/07 05:24:05;;;;;;;20.10;13.00;;;;;;;0.37;92.23;95903.41;1757688;82;21155;-87
2021/01/07 05:26:32;;;;;;;20.77;12.98;;;;;;;0.42;92.30;95902.19;1730122;82;21159;-88
2021/01/07 05:28:59;;;;;;;22.15;13.90;;;;;;;0.47;92.32;95901.52;1730956;81;21151;-87
2021/01/07 05:31:28;;;;;;;31.60;17.75;;;;;;;0.43;92.27;95899.89;1735174;81;21491;-88
2021/01/07 05:33:56;;;;;;;31.68;18.70;;;;;;;0.39;92.26;95908.38;1760971;81;21184;-88
2021/01/07 05:36:26;;;;;;;33.23;18.77;;;;;;;0.38;92.32;95905.50;1761015;81;21163;-87
2021/01/07 05:38:59;;;;;;;27.15;16.12;;;;;;;0.39;92.41;95903.96;1761204;81;21146;-87
2021/01/07 05:41:29;;;;;;;28.47;15.95;;;;;;;0.45;92.44;95910.08;1760215;81;21151;-87
2021/01/07 05:44:07;;;;;;;28.02;15.78;;;;;;;0.46;92.37;95909.85;1761192;81;21148;-87
2021/01/07 05:46:35;;;;;;;28.80;18.52;;;;;;;0.47;92.30;95906.22;1759946;81;21488;-88
2021/01/07 05:49:04;;;;;;;28.73;17.12;;;;;;;0.49;92.33;95905.98;1763684;80;21177;-88
2021/01/07 05:51:32;;;;;;;30.00;18.55;;;;;;;0.49;92.23;95893.73;1795667;80;21131;-88
2021/01/07 05:54:00;;;;;;;28.35;18.02;;;;;;;0.48;92.26;95893.97;1795648;80;21135;-88
2021/01/07 05:56:28;;;;;;;29.57;17.75;;;;;;;0.52;92.26;95901.60;1795522;79;21273;-88
2021/01/07 05:58:56;;;;;;;28.07;16.45;;;;;;;0.53;92.27;95888.84;1795506;80;21282;-88
2021/01/07 06:01:24;;;;;;;22.55;14.15;;;;;;;0.49;92.18;95898.95;1795508;80;21637;-87
2021/01/07 06:03:54;;;;;;;22.85;14.23;;;;;;;0.40;92.09;95900.33;1795534;80;21153;-88
2021/01/07 06:06:24;;;;;;;29.92;17.73;;;;;;;0.35;92.10;95903.36;1795572;80;21511;-87
2021/01/07 06:08:55;;;;;;;20.85;12.78;;;;;;;0.29;91.99;95898.56;1795647;79;21269;-87
2021/01/07 06:11:25;;;;;;;22.10;13.53;;;;;;;0.26;92.02;95894.58;1795535;79;21115;-88
2021/01/07 06:13:54;;;;;;;29.02;16.37;;;;;;;0.22;92.03;95903.89;1795701;79;21151;-87
2021/01/07 06:16:24;;;;;;;;;;;;;;;0.22;92.07;95903.10;1798263;79;21530;-87
2021/01/07 06:18:54;;;;;;;31.62;19.20;;;;;;;0.25;92.13;95909.15;1795485;79;20135;-87
2021/01/07 06:21:27;;;;;;;33.28;20.45;;;;;;;0.26;92.16;95903.70;1793360;80;21143;-87
2021/01/07 06:23:58;;;;;;;40.17;24.67;;;;;;;0.28;92.18;95913.90;1793372;80;21092;-87
2021/01/07 06:26:29;;;;;;;53.10;32.08;;;;;;;0.31;92.21;95914.77;1793318;80;21164;-88
2021/01/07 06:29:00;;;;;;;50.48;35.35;;;;;;;0.33;92.22;95920.53;1799497;80;21116;-87
2021/01/07 06:31:37;;;;;;;61.42;34.85;;;;;;;0.39;92.31;95927.42;1781961;80;21119;-87
2021/01/07 06:34:06;;;;;;;41.30;25.90;;;;;;;0.43;92.32;95926.47;1802173;80;21110;-87
2021/01/07 06:36:42;;;;;;;38.13;22.75;;;;;;;0.42;92.31;95926.16;1781902;80;21155;-87
2021/01/07 06:39:10;;;;;;;33.73;20.97;;;;;;;0.41;92.34;95932.41;1801523;79;21125;-87
2021/01/07 06:41:38;;;;;;;34.23;21.12;;;;;;;0.43;92.33;95931.69;1781961;80;21159;-88
2021/01/07 06:44:06;;;;;;;38.67;22.20;;;;;;;0.47;92.34;95933.59;1802051;79;21138;-87
2021/01/07 06:46:46;;;;;;;37.45;23.75;;;;;;;0.50;92.30;95944.86;1781925;80;21156;-87
2021/01/07 06:49:29;;;;;;;39.92;24.27;;;;;;;0.54;92.35;95939.45;1802322;79;21143;-88
2021/01/07 06:52:04;;;;;;;49.30;27.42;;;;;;;0.61;92.37;95944.56;1803901;79;21265;-87
2021/01/07 06:54:35;;;;;;;41.53;27.67;;;;;;;0.62;92.32;95948.75;1804292;79;21120;-87
2021/01/07 06:57:06;;;;;;;50.00;29.52;;;;;;;0.64;92.29;95948.52;1777203;79;21091;-87
2021/01/07 06:59:34;;;;;;;41.92;24.95;;;;;;;0.67;92.25;95955.87;1786777;80;21136;-87
2021/01/07 07:02:05;;;;;;;44.23;26.27;;;;;;;0.70;92.21;95956.19;1787600;80;21130;-88
2021/01/07 07:04:33;;;;;;;46.18;29.77;;;;;;;0.64;92.06;95943.30;1787881;80;21128;-88
2021/01/07 07:07:18;;;;;;;51.13;30.77;;;;;;;0.62;92.02;95959.18;1787684;80;21519;-88
2021/01/07 07:09:45;;;;;;;45.20;27.37;;;;;;;0.63;92.12;95959.97;1785827;80;21194;-88
2021/01/07 07:12:31;;;;;;;47.83;29.50;;;;;;;0.64;92.06;95965.47;1787684;80;21494;-88
2021/01/07 07:14:59;;;;;;;50.33;27.87;;;;;;;0.55;91.99;95968.42;1787461;80;21495;-88
2021/01/07 07:17:28;;;;;;;44.58;26.95;;;;;;;0.61;92.10;95971.16;1787706;80;21158;-88
2021/01/07 07:19:56;;;;;;;43.35;26.85;;;;;;;0.53;92.01;95972.29;1787000;80;21137;-88
2021/01/07 07:22:22;;;;;;;45.65;25.77;;;;;;;0.50;92.06;95977.45;1787650;80;21491;-88
2021/01/07 07:24:53;;;;;;;46.42;28.12;;;;;;;0.50;92.03;95983.98;1787996;80;21634;-88
2021/01/07 07:27:23;;;;;;;48.10;28.10;;;;;;;0.46;92.04;95982.07;1787729;80;21319;-88
2021/01/07 07:29:52;;;;;;;49.48;27.55;;;;;;;0.47;92.16;95987.05;1786691;80;21173;-88
2021/01/07 07:32:26;;;;;;;47.23;27.17;;;;;;;0.53;92.23;95990.55;1761247;80;21163;-88
2021/01/07 07:34:55;;;;;;;46.05;27.55;;;;;;;0.53;92.27;95993.94;1784928;80;21270;-88
2021/01/07 07:37:27;;;;;;;47.13;27.52;;;;;;;0.59;92.34;96003.47;1784987;80;21135;-88
2021/01/07 07:40:04;;;;;;;48.20;27.27;;;;;;;0.63;92.30;95999.89;1784846;80;21139;-88
2021/01/07 07:42:31;;;;;;;54.08;31.80;;;;;;;0.54;92.08;96008.56;1784963;80;21285;-87
2021/01/07 07:44:59;;;;;;;55.67;30.43;;;;;;;0.44;92.09;96008.38;1784854;80;21515;-88
2021/01/07 07:47:27;;;;;;;54.58;30.55;;;;;;;0.41;92.13;96014.02;1784932;80;21657;-88
2021/01/07 07:49:58;;;;;;;57.43;33.25;;;;;;;0.37;92.19;96015.51;1784507;80;21147;-88
2021/01/07 07:52:26;;;;;;;57.75;34.03;;;;;;;0.35;92.25;96018.86;1784893;80;21289;-88
2021/01/07 07:55:02;;;;;;;53.95;33.85;;;;;;;0.39;92.43;96023.89;1785132;80;21606;-88
2021/01/07 07:57:29;;;;;;;57.88;33.80;;;;;;;0.46;92.52;96027.19;1784856;80;21270;-88
2021/01/07 08:00:14;;;;;;;48.15;30.12;;;;;;;0.53;92.59;96029.15;1784826;80;21147;-88
2021/01/07 08:02:54;;;;;;;46.25;27.60;;;;;;;0.67;92.63;96026.30;1785076;79;23062;-87
2021/01/07 08:05:28;;;;;;;45.78;28.23;;;;;;;0.66;92.60;96029.42;1759725;81;21240;-87
2021/01/07 08:07:56;;;;;;;51.95;28.45;;;;;;;0.67;92.51;96035.42;1759230;81;21155;-87
2021/01/07 08:10:26;;;;;;;50.50;29.23;;;;;;;0.68;92.53;96040.41;1729466;83;21511;-87
2021/01/07 08:12:54;;;;;;;42.43;26.82;;;;;;;0.69;92.48;96036.78;1729416;83;21167;-87
2021/01/07 08:15:32;;;;;;;47.85;26.77;;;;;;;0.74;92.49;96042.63;1729410;83;21499;-87
2021/01/07 08:18:21;;;;;;;59.75;32.85;;;;;;;0.72;92.38;96035.55;1729281;81;21499;-87
2021/01/07 08:20:51;;;;;;;53.23;31.55;;;;;;;0.64;92.25;96038.50;1729378;83;21123;-88
2021/01/07 08:23:20;;;;;;;54.75;31.35;;;;;;;0.59;92.33;96037.89;1729575;83;21150;-88
2021/01/07 08:25:51;;;;;;;59.07;34.93;;;;;;;0.65;92.41;96045.30;1729907;83;21176;-88
2021/01/07 08:28:44;;;;;;;56.33;33.98;;;;;;;0.71;92.48;96041.80;1729254;82;21162;-87
2021/01/07 08:31:22;;;;;;;48.90;29.18;;;;;;;0.76;92.50;96047.89;1729379;83;21162;-88
2021/01/07 08:33:52;;;;;;;53.42;31.90;;;;;;;0.82;92.40;96046.97;1729336;83;21148;-87
2021/01/07 08:36:21;;;;;;;52.55;29.25;;;;;;;0.81;92.32;96049.30;1729393;83;21127;-88
2021/01/07 08:38:54;;;;;;;33.65;20.48;;;;;;;0.83;92.28;96048.55;1729354;81;21151;-88
2021/01/07 08:41:27;;;;;;;27.35;15.98;;;;;;;0.84;92.12;96057.17;1729602;83;21148;-88
2021/01/07 08:43:56;;;;;;;26.42;15.50;;;;;;;0.77;91.63;96058.61;1729291;83;21127;-88
2021/01/07 08:46:28;;;;;;;20.70;12.98;;;;;;;0.67;91.30;96060.20;1729579;83;21142;-87
2021/01/07 08:49:08;;;;;;;25.97;15.43;;;;;;;0.53;90.99;96053.92;1727238;82;21503;-87
2021/01/07 08:51:43;;;;;;;22.65;14.50;;;;;;;0.41;91.00;96053.13;1729626;83;21122;-88
2021/01/07 08:54:17;;;;;;;20.37;11.70;;;;;;;0.41;91.00;96053.13;1729440;83;21142;-88
2021/01/07 08:56:48;;;;;;;23.38;14.23;;;;;;;0.35;90.82;96063.18;1729200;83;21166;-88
2021/01/07 08:59:29;;;;;;;21.42;13.53;;;;;;;0.27;90.88;96060.90;1729434;82;21506;-88
2021/01/07 09:02:11;;;;;;;15.83;10.55;;;;;;;0.23;91.01;96061.08;1729401;83;21143;-88
2021/01/07 09:04:40;;;;;;;16.20;9.85;;;;;;;0.19;91.00;96063.34;1729727;83;21119;-88
2021/01/07 09:07:19;;;;;;;15.68;8.88;;;;;;;0.18;91.23;96059.16;1729423;83;21135;-88
2021/01/07 09:09:56;;;;;;;11.12;6.92;;;;;;;0.19;91.06;96067.77;1728638;81;21132;-88
2021/01/07 09:12:29;;;;;;;12.80;7.08;;;;;;;0.14;90.65;96052.81;1729391;83;21084;-88
2021/01/07 09:15:05;;;;;;;14.05;6.83;;;;;;;0.13;90.30;96056.92;1726721;83;21309;-88
2021/01/07 09:17:55;;;;;;;7.70;4.42;;;;;;;0.10;89.99;96054.78;1728794;83;21126;-88
2021/01/07 09:20:32;;;;;;;9.65;4.90;;;;;;;0.07;89.45;96062.55;1728825;83;21130;-87
2021/01/07 09:23:08;;;;;;;8.80;4.35;;;;;;;0.01;88.95;96066.06;1728766;83;21452;-87
2021/01/07 09:25:36;;;;;;;7.60;4.00;;;;;;;0.01;88.74;96057.45;1728832;83;21590;-88
2021/01/07 09:28:05;;;;;;;11.15;5.50;;;;;;;0.02;88.55;96059.03;1728792;82;21162;-88
2021/01/07 09:30:33;;;;;;;8.88;5.25;;;;;;;0.03;88.64;96060.11;1729035;83;21479;-88
2021/01/07 09:33:01;;;;;;;10.82;5.53;;;;;;;-0.07;88.29;96043.72;1729007;83;21151;-88
2021/01/07 09:35:29;;;;;;;8.45;4.58;;;;;;;0.08;88.37;96060.73;1728806;83;21167;-88
2021/01/07 09:37:57;;;;;;;8.88;4.85;;;;;;;0.07;87.85;96068.27;1728718;82;21159;-88
2021/01/07 09:40:25;;;;;;;9.08;4.28;;;;;;;0.07;87.36;96070.87;1728849;83;21189;-88
2021/01/07 09:42:52;;;;;;;7.40;4.85;;;;;;;0.07;86.94;96076.08;1728979;83;21150;-88
2021/01/07 09:45:19;;;;;;;14.90;8.50;;;;;;;0.06;86.94;96070.08;1728869;83;21175;-88
2021/01/07 09:47:46;;;;;;;9.50;4.78;;;;;;;0.06;86.80;96064.86;1728973;83;21157;-88
2021/01/07 09:50:15;;;;;;;4.30;2.67;;;;;;;0.01;86.18;96075.17;1728718;82;21648;-88
2021/01/07 09:52:42;;;;;;;4.65;2.85;;;;;;;-0.03;86.05;96074.81;1728733;83;21111;-88
2021/01/07 09:55:10;;;;;;;10.68;4.55;;;;;;;-0.04;85.98;96088.86;1728750;83;21241;-88
2021/01/07 09:57:37;;;;;;;11.10;5.12;;;;;;;-0.07;85.95;96075.49;1728715;83;21277;-88
2021/01/07 10:00:08;;;;;;;6.22;3.52;;;;;;;-0.12;86.98;96080.59;1728824;82;21281;-88
2021/01/07 10:02:35;;;;;;;10.93;7.03;;;;;;;-0.18;86.39;96080.95;1728682;83;21188;-88
2021/01/07 10:05:04;;;;;;;9.43;5.72;;;;;;;-0.19;86.51;96081.18;1728764;83;21142;-88
2021/01/07 10:07:31;;;;;;;16.93;9.60;;;;;;;-0.23;86.87;96086.56;1729216;83;21150;-88
2021/01/07 10:09:58;;;;;;;12.00;7.15;;;;;;;-0.23;86.87;96086.56;1728705;82;21653;-88
2021/01/07 10:12:25;;;;;;;9.48;6.90;;;;;;;-0.21;86.93;96089.73;1728858;83;21640;-88
2021/01/07 10:14:51;;;;;;;12.93;7.28;;;;;;;-0.21;86.93;96087.92;1728913;83;21502;-88
2021/01/07 10:17:20;;;;;;;24.82;15.95;;;;;;;-0.21;86.93;96087.92;1728824;83;21136;-88
2021/01/07 10:19:48;;;;;;;22.05;10.78;;;;;;;-0.17;87.17;96092.17;1728689;82;21162;-88
2021/01/07 10:22:19;;;;;;;22.20;11.97;;;;;;;-0.12;87.20;96091.80;1728746;83;21170;-88
2021/01/07 10:24:48;;;;;;;16.07;8.98;;;;;;;-0.08;87.05;96090.33;1728791;83;21114;-89
2021/01/07 10:27:18;;;;;;;26.85;12.70;;;;;;;-0.09;86.67;96085.34;1728806;83;21502;-88
2021/01/07 10:29:47;;;;;;;26.05;11.88;;;;;;;-0.12;86.21;96089.20;1728843;82;21142;-88
2021/01/07 10:32:18;;;;;;;11.63;5.25;;;;;;;-0.12;86.26;96090.50;1728866;83;21502;-88
2021/01/07 10:34:48;;;;;;;9.25;5.15;;;;;;;-0.12;85.98;96093.11;1728840;83;21574;-88
2021/01/07 10:37:22;;;;;;;14.00;7.25;;;;;;;-0.14;85.74;96088.63;1729047;83;21127;-88
2021/01/07 10:39:53;;;;;;;14.55;6.70;;;;;;;-0.13;85.82;96091.52;1728678;82;21524;-88
2021/01/07 10:42:23;;;;;;;9.90;5.28;;;;;;;-0.16;85.41;96096.36;1728757;83;21285;-88
2021/01/07 10:44:52;;;;;;;9.63;5.47;;;;;;;-0.15;85.40;96097.44;1728964;83;21638;-88
2021/01/07 10:47:20;;;;;;;7.75;4.70;;;;;;;-0.12;85.17;96100.13;1728737;83;21151;-89
2021/01/07 10:49:48;;;;;;;5.42;4.00;;;;;;;-0.06;84.64;96094.80;1728672;82;21269;-88
2021/01/07 10:52:51;;;;;;;8.65;4.92;;;;;;;-0.06;84.64;96085.69;1728818;83;21116;-88
2021/01/07 10:55:27;;;;;;;4.80;2.92;;;;;;;-0.03;84.46;96089.66;1728560;83;21142;-88
2021/01/07 10:58:20;;;;;;;5.78;3.72;;;;;;;0.03;84.41;96085.38;1728961;82;21115;-88
2021/01/07 11:01:20;;;;;;;10.10;4.17;;;;;;;0.04;84.23;96096.08;1728724;83;21135;-88
2021/01/07 11:04:13;;;;;;;5.10;3.22;;;;;;;0.05;84.12;96084.64;1728932;83;21468;-88
2021/01/07 11:06:55;;;;;;;5.22;2.50;;;;;;;0.12;83.70;96095.73;1728936;83;21160;-88
2021/01/07 11:09:27;;;;;;;3.87;2.35;;;;;;;0.12;83.18;96090.52;1727818;82;21535;-88
2021/01/07 11:11:59;;;;;;;5.25;3.22;;;;;;;0.06;82.75;96090.92;1728825;83;21123;-88
2021/01/07 11:14:58;;;;;;;4.28;2.67;;;;;;;0.06;82.49;96092.73;1728719;83;21265;-87
2021/01/07 11:17:29;;;;;;;5.22;2.95;;;;;;;0.06;82.12;96084.92;1728761;83;21245;-88
2021/01/07 11:20:01;;;;;;;5.10;3.45;;;;;;;0.06;82.47;96092.73;1728923;82;21150;-88
2021/01/07 11:22:34;;;;;;;2.62;1.92;;;;;;;0.08;82.41;96094.61;1728681;83;21127;-88
2021/01/07 11:25:04;;;;;;;3.45;2.30;;;;;;;0.15;82.15;96078.38;1728767;83;21277;-88
2021/01/07 11:27:32;;;;;;;3.45;2.22;;;;;;;0.18;81.84;96087.03;1729300;83;21483;-88
2021/01/07 11:30:03;;;;;;;7.72;2.42;;;;;;;0.21;81.53;96078.76;1728627;82;21322;-88
2021/01/07 11:32:31;;;;;;;3.67;2.30;;;;;;;0.18;81.27;96088.34;1728739;83;21159;-88
2021/01/07 11:35:01;;;;;;;4.72;2.33;;;;;;;-0.01;80.99;96071.47;1728674;83;21289;-88
2021/01/07 11:37:52;;;;;;;5.47;3.85;;;;;;;0.04;81.55;96083.84;1728922;83;21163;-88
2021/01/07 11:40:25;;;;;;;;;;;;;;;0.02;81.60;96085.88;1730936;83;21151;-88
2021/01/07 11:43:24;;;;;;;7.50;3.15;;;;;;;0.01;81.31;96092.63;1728711;83;20130;-88
2021/01/07 11:46:01;;;;;;;6.25;3.47;;;;;;;-0.08;81.56;96085.63;1728685;83;21479;-88